Parker, Minnesota
Current Conditions -  °F | °C
As of 6:18 AM on Sunday 23 Nov 2014 (Local Time) from KLXL Reporting Station
Haze Haze  
Wind Chill: 34°   Ceiling: 10000
Heat Index: 34°   Visibility: 2mi
Dew Point: 32°   Wind: 0mph
Humidity: 93%   Direction: NA
Pressure: 29.41"   Gusts: NA
Location:  46.0639°N, 94.5189°W
Report Text: KLXL 231218Z AUTO 00000KT 2SM BR OVC100 01/00 A2941 RMK AO2
Loading
Personal Weather Stations






























Interactive Weather Map New forecast layout! Learn more

10-Day Weather Forecast

Advertisements
Track Severe Weather on mobile